createdAt,value
2023-10-20T00:00:16.769Z,23.55
2023-10-20T00:03:19.618Z,20.60
2023-10-20T00:06:22.103Z,18.92
2023-10-20T00:09:26.135Z,21.48
2023-10-20T00:12:29.426Z,20.60
2023-10-20T00:15:31.838Z,20.42
2023-10-20T00:18:34.461Z,19.67
2023-10-20T00:21:36.879Z,20.88
2023-10-20T00:24:38.705Z,20.33
2023-10-20T00:27:46.556Z,19.27
2023-10-20T00:30:48.420Z,19.85
2023-10-20T00:33:51.518Z,19.52
2023-10-20T00:36:53.413Z,17.45
2023-10-20T00:39:55.496Z,20.60
2023-10-20T00:42:58.717Z,20.33
2023-10-20T00:46:00.698Z,17.48
2023-10-20T00:49:04.012Z,19.67
2023-10-20T00:52:07.836Z,18.65
2023-10-20T00:55:12.792Z,16.88
2023-10-20T00:58:16.100Z,19.02
2023-10-20T01:01:18.436Z,17.63
2023-10-20T01:04:20.731Z,18.42
2023-10-20T01:07:22.524Z,18.55
2023-10-20T01:10:25.635Z,17.00
2023-10-20T01:13:28.837Z,17.58
2023-10-20T01:16:30.700Z,17.30
2023-10-20T01:19:33.616Z,18.50
2023-10-20T01:22:35.683Z,19.75
2023-10-20T01:25:39.708Z,17.92
2023-10-20T01:28:41.617Z,18.88
2023-10-20T01:31:43.431Z,15.77
2023-10-20T01:34:45.589Z,18.60
2023-10-20T01:37:47.461Z,20.38
2023-10-20T01:40:51.618Z,19.35
2023-10-20T01:43:53.491Z,17.10
2023-10-20T01:46:55.897Z,17.27
2023-10-20T01:49:58.323Z,18.13
2023-10-20T01:53:00.211Z,16.85
2023-10-20T01:56:03.783Z,16.38
2023-10-20T01:59:05.748Z,19.95
2023-10-20T02:02:07.716Z,17.42
2023-10-20T02:05:10.702Z,15.90
2023-10-20T02:08:13.493Z,16.08
2023-10-20T02:11:17.677Z,16.17
2023-10-20T02:14:19.659Z,17.30
2023-10-20T02:17:22.226Z,18.33
2023-10-20T02:20:26.415Z,15.15
2023-10-20T02:23:31.133Z,17.15
2023-10-20T02:26:34.531Z,17.67
2023-10-20T02:29:36.598Z,18.80
2023-10-20T02:32:39.325Z,17.20
2023-10-20T02:35:41.382Z,18.13
2023-10-20T02:38:44.271Z,14.80
2023-10-20T02:41:47.657Z,15.27
2023-10-20T02:44:50.237Z,16.10
2023-10-20T02:47:52.220Z,16.20
2023-10-20T02:50:55.164Z,16.23
2023-10-20T02:53:57.060Z,16.58
2023-10-20T02:57:00.309Z,16.10
2023-10-20T03:00:05.319Z,16.63
2023-10-20T03:03:07.377Z,18.52
2023-10-20T03:06:10.114Z,17.25
2023-10-20T03:09:14.739Z,17.25
2023-10-20T03:12:18.466Z,16.40
2023-10-20T03:15:20.951Z,16.45
2023-10-20T03:18:23.013Z,16.08
2023-10-20T03:21:25.125Z,16.95
2023-10-20T03:24:26.954Z,15.35
2023-10-20T03:27:30.985Z,16.55
2023-10-20T03:30:37.958Z,15.02
2023-10-20T03:33:39.984Z,15.95
2023-10-20T03:36:41.843Z,15.95
2023-10-20T03:39:44.842Z,17.30
2023-10-20T03:42:49.694Z,17.42
2023-10-20T03:45:53.412Z,17.00
2023-10-20T03:48:55.946Z,15.45
2023-10-20T03:51:57.935Z,16.95
2023-10-20T03:55:01.592Z,14.57
2023-10-20T03:58:05.402Z,16.17
2023-10-20T04:01:09.172Z,14.77
2023-10-20T04:04:13.076Z,16.58
2023-10-20T04:07:16.280Z,15.38
2023-10-20T04:10:21.961Z,15.25
2023-10-20T04:13:25.494Z,17.25
2023-10-20T04:16:30.257Z,15.38
2023-10-20T04:19:33.974Z,17.05
2023-10-20T04:25:45.821Z,12.90
2023-10-20T04:28:52.371Z,17.42
2023-10-20T04:32:13.491Z,14.95
2023-10-20T04:35:34.460Z,16.60
2023-10-20T04:38:54.940Z,16.77
2023-10-20T04:41:57.775Z,17.80
2023-10-20T04:45:19.742Z,16.05
2023-10-20T04:48:31.068Z,16.65
2023-10-20T04:51:52.522Z,15.15
2023-10-20T04:55:00.001Z,15.57
2023-10-20T04:58:19.381Z,14.30
2023-10-20T05:01:42.185Z,15.88
2023-10-20T05:04:47.611Z,12.93
2023-10-20T05:07:51.928Z,14.57
2023-10-20T05:10:55.421Z,12.90
2023-10-20T05:13:57.623Z,14.48
2023-10-20T05:17:00.972Z,14.10
2023-10-20T05:20:06.483Z,15.20
2023-10-20T05:23:09.114Z,12.82
2023-10-20T05:26:11.736Z,12.93
2023-10-20T05:29:15.604Z,11.57
2023-10-20T05:32:19.113Z,12.48
2023-10-20T05:35:21.440Z,13.00
2023-10-20T05:38:23.755Z,13.32
2023-10-20T05:41:25.769Z,13.25
2023-10-20T05:44:31.680Z,12.00
2023-10-20T05:47:35.015Z,11.10
2023-10-20T05:50:37.420Z,11.02
2023-10-20T05:53:39.735Z,11.40
2023-10-20T05:56:41.735Z,12.93
2023-10-20T05:59:44.333Z,12.63
2023-10-20T06:02:47.982Z,19.48
2023-10-20T06:05:50.760Z,23.02
2023-10-20T06:08:52.678Z,26.95
2023-10-20T06:11:57.914Z,28.73
2023-10-20T06:14:59.816Z,31.88
2023-10-20T06:18:05.676Z,35.85
2023-10-20T06:21:11.742Z,37.97
2023-10-20T06:24:15.517Z,40.28
2023-10-20T06:27:17.335Z,42.13
2023-10-20T06:30:24.858Z,37.80
2023-10-20T06:33:38.505Z,26.08
2023-10-20T06:36:48.156Z,28.58
2023-10-20T06:39:50.729Z,31.08
2023-10-20T06:42:52.672Z,28.45
2023-10-20T06:45:57.882Z,17.58
2023-10-20T06:49:01.168Z,17.75
2023-10-20T06:52:05.130Z,18.20
2023-10-20T06:55:42.654Z,16.00
2023-10-20T06:58:31.585Z,14.30
2023-10-20T07:01:34.454Z,14.65
2023-10-20T07:04:38.637Z,18.63
2023-10-20T07:07:41.669Z,20.02
2023-10-20T07:10:44.627Z,20.48
2023-10-20T07:13:46.535Z,23.00
2023-10-20T07:16:48.548Z,24.65
2023-10-20T07:19:51.893Z,20.73
2023-10-20T07:22:54.482Z,19.98
2023-10-20T07:25:56.368Z,18.33
2023-10-20T07:28:58.265Z,18.33
2023-10-20T07:32:00.152Z,15.80
2023-10-20T07:35:04.450Z,16.90
2023-10-20T07:38:06.714Z,15.43
2023-10-20T07:41:11.199Z,16.13
2023-10-20T07:44:13.942Z,15.38
2023-10-20T07:47:15.914Z,15.75
2023-10-20T07:50:20.624Z,15.82
2023-10-20T07:53:22.665Z,16.30
2023-10-20T07:56:26.385Z,16.00
2023-10-20T07:59:30.165Z,18.27
2023-10-20T08:02:32.646Z,17.63
2023-10-20T08:05:37.152Z,17.30
2023-10-20T08:08:39.390Z,17.15
2023-10-20T08:11:43.295Z,17.08
2023-10-20T08:14:45.388Z,15.90
2023-10-20T08:17:47.532Z,15.98
2023-10-20T08:20:51.796Z,16.40
2023-10-20T08:23:53.803Z,14.68
2023-10-20T08:26:56.368Z,14.68
2023-10-20T08:29:59.155Z,15.25
2023-10-20T08:33:01.321Z,14.75
2023-10-20T08:36:16.269Z,12.65
2023-10-20T08:39:21.843Z,13.82
2023-10-20T08:45:28.082Z,11.57
2023-10-20T08:48:30.031Z,12.10
2023-10-20T08:51:34.652Z,13.52
2023-10-20T08:54:36.558Z,12.38
2023-10-20T08:57:39.124Z,11.13
2023-10-20T09:00:47.552Z,13.02
2023-10-20T09:04:02.228Z,11.23
2023-10-20T09:07:15.408Z,9.77
2023-10-20T09:10:17.536Z,10.02
2023-10-20T09:13:19.355Z,9.55
2023-10-20T09:16:21.312Z,10.80
2023-10-20T09:19:24.163Z,11.95
2023-10-20T09:22:30.772Z,11.82
2023-10-20T09:25:33.209Z,11.77
2023-10-20T09:28:37.052Z,10.55
2023-10-20T09:31:40.106Z,9.95
2023-10-20T09:34:42.222Z,9.60
2023-10-20T09:37:52.300Z,10.57
2023-10-20T09:41:09.755Z,8.93
2023-10-20T09:44:21.517Z,8.88
2023-10-20T09:47:28.339Z,8.18
2023-10-20T09:50:33.069Z,7.70
2023-10-20T09:53:37.050Z,8.10
2023-10-20T09:56:40.364Z,7.05
2023-10-20T09:59:43.333Z,6.22
2023-10-20T10:02:46.136Z,6.65
2023-10-20T10:05:48.208Z,6.70
2023-10-20T10:08:54.377Z,6.82
2023-10-20T10:11:56.558Z,6.18
2023-10-20T10:15:00.513Z,5.07
2023-10-20T10:18:10.389Z,5.40
2023-10-20T10:21:24.451Z,5.68
2023-10-20T10:24:27.798Z,5.53
2023-10-20T10:27:31.373Z,6.47
2023-10-20T10:30:33.500Z,5.82
2023-10-20T10:33:36.421Z,7.03
2023-10-20T10:36:51.164Z,5.35
2023-10-20T10:39:55.474Z,5.22
2023-10-20T10:42:58.504Z,4.50
2023-10-20T10:46:00.353Z,5.35
2023-10-20T10:49:07.248Z,5.80
2023-10-20T10:52:09.097Z,5.20
2023-10-20T10:55:14.725Z,7.88
2023-10-20T10:58:16.866Z,5.47
2023-10-20T11:01:18.869Z,5.45
2023-10-20T11:04:21.334Z,6.13
2023-10-20T11:07:23.850Z,5.95
2023-10-20T11:10:28.668Z,6.72
2023-10-20T11:13:30.973Z,6.07
2023-10-20T11:16:35.133Z,5.85
2023-10-20T11:19:38.703Z,7.05
2023-10-20T11:22:40.978Z,5.57
2023-10-20T11:25:46.462Z,5.20
2023-10-20T11:28:48.359Z,5.15
2023-10-20T11:31:50.257Z,5.10
2023-10-20T11:34:52.986Z,5.65
2023-10-20T11:37:55.717Z,5.50
2023-10-20T11:41:00.321Z,5.53
2023-10-20T11:44:02.146Z,6.40
2023-10-20T11:47:04.884Z,5.55
2023-10-20T11:50:09.956Z,4.50
2023-10-20T11:56:18.184Z,4.65
2023-10-20T11:59:20.088Z,3.90
2023-10-20T12:02:24.310Z,4.88
2023-10-20T12:05:27.115Z,4.40
2023-10-20T12:08:30.767Z,4.97
2023-10-20T12:11:34.778Z,4.72
2023-10-20T12:14:37.038Z,4.57
2023-10-20T12:17:42.437Z,4.47
2023-10-20T12:20:44.828Z,3.95
2023-10-20T12:23:46.998Z,3.90
2023-10-20T12:26:51.245Z,5.07
2023-10-20T12:29:53.249Z,4.88
2023-10-20T12:32:55.873Z,4.45
2023-10-20T12:35:58.713Z,3.88
2023-10-20T12:39:01.578Z,4.97
2023-10-20T12:42:06.162Z,5.40
2023-10-20T12:45:10.522Z,4.15
2023-10-20T12:48:12.644Z,4.90
2023-10-20T12:51:14.862Z,4.50
2023-10-20T12:54:16.794Z,3.75
2023-10-20T12:57:20.132Z,4.25
2023-10-20T13:00:22.311Z,3.40
2023-10-20T13:03:25.577Z,2.58
2023-10-20T13:06:27.593Z,2.80
2023-10-20T13:09:29.688Z,3.72
2023-10-20T13:12:33.151Z,3.63
2023-10-20T13:15:35.029Z,3.17
2023-10-20T13:18:37.642Z,3.30
2023-10-20T13:21:39.520Z,3.30
2023-10-20T13:24:41.771Z,4.68
2023-10-20T13:27:45.059Z,3.67
2023-10-20T13:31:07.582Z,3.45
2023-10-20T13:34:09.891Z,3.90
2023-10-20T13:37:11.868Z,3.17
2023-10-20T13:40:14.664Z,4.15
2023-10-20T13:43:17.949Z,3.92
2023-10-20T13:46:19.895Z,3.47
2023-10-20T13:49:22.625Z,3.25
2023-10-20T13:52:24.664Z,3.42
2023-10-20T13:55:27.040Z,3.75
2023-10-20T13:58:30.300Z,4.60
2023-10-20T14:01:32.599Z,4.22
2023-10-20T14:04:34.775Z,3.63
2023-10-20T14:07:37.848Z,4.72
2023-10-20T14:10:39.785Z,3.72
2023-10-20T14:13:43.198Z,3.72
2023-10-20T14:16:45.144Z,3.90
2023-10-20T14:19:47.545Z,3.88
2023-10-20T14:22:49.362Z,4.13
2023-10-20T14:25:57.246Z,4.85
2023-10-20T14:29:00.576Z,3.30
2023-10-20T14:32:02.566Z,4.03
2023-10-20T14:35:07.693Z,3.65
2023-10-20T14:38:09.583Z,4.05
2023-10-20T14:41:11.636Z,4.32
2023-10-20T14:44:14.949Z,4.00
2023-10-20T14:47:17.423Z,4.80
2023-10-20T14:50:19.320Z,4.03
2023-10-20T14:53:22.024Z,3.50
2023-10-20T14:56:23.934Z,3.60
2023-10-20T14:59:27.891Z,4.32
2023-10-20T15:02:29.813Z,3.80
2023-10-20T15:05:32.428Z,4.03
2023-10-20T15:08:34.741Z,4.68
2023-10-20T15:11:37.500Z,4.68
2023-10-20T15:14:40.797Z,4.47
2023-10-20T15:17:42.810Z,3.60
2023-10-20T15:20:46.017Z,3.63
2023-10-20T15:23:48.104Z,3.92
2023-10-20T15:26:51.495Z,4.60
2023-10-20T15:29:54.972Z,3.75
2023-10-20T15:32:57.097Z,5.28
2023-10-20T15:35:59.365Z,4.28
2023-10-20T15:39:01.308Z,4.38
2023-10-20T15:42:04.375Z,4.57
2023-10-20T15:45:11.504Z,3.60
2023-10-20T15:48:14.435Z,4.18
2023-10-20T15:51:18.796Z,4.28
2023-10-20T15:54:21.202Z,5.65
2023-10-20T15:57:23.444Z,4.80
2023-10-20T16:00:26.671Z,4.25
2023-10-20T16:03:29.668Z,3.90
2023-10-20T16:06:31.761Z,5.00
2023-10-20T16:09:33.975Z,3.80
2023-10-20T16:12:36.289Z,3.67
2023-10-20T16:15:39.675Z,5.60
2023-10-20T16:18:41.785Z,4.80
2023-10-20T16:21:44.450Z,4.97
2023-10-20T16:24:47.401Z,4.18
2023-10-20T16:27:50.380Z,4.43
2023-10-20T16:30:53.807Z,5.13
2023-10-20T16:33:56.194Z,4.18
2023-10-20T16:36:58.421Z,4.60
2023-10-20T16:40:03.449Z,4.93
2023-10-20T16:46:15.451Z,6.10
2023-10-20T16:49:17.484Z,4.97
2023-10-20T16:52:19.879Z,5.38
2023-10-20T16:55:22.277Z,4.78
2023-10-20T16:58:28.025Z,4.95
2023-10-20T17:01:33.213Z,4.50
2023-10-20T17:04:36.056Z,4.80
2023-10-20T17:07:38.928Z,5.65
2023-10-20T17:10:41.931Z,4.30
2023-10-20T17:13:44.263Z,4.40
2023-10-20T17:16:48.375Z,5.07
2023-10-20T17:19:50.306Z,4.47
2023-10-20T17:22:52.910Z,3.53
2023-10-20T17:25:55.926Z,4.95
2023-10-20T17:28:58.753Z,4.45
2023-10-20T17:32:02.946Z,4.05
2023-10-20T17:35:07.510Z,4.70
2023-10-20T17:38:11.312Z,5.00
2023-10-20T17:41:14.192Z,4.40
2023-10-20T17:44:17.688Z,3.97
2023-10-20T17:47:21.851Z,3.70
2023-10-20T17:50:24.621Z,4.03
2023-10-20T17:53:28.326Z,4.40
2023-10-20T17:56:31.188Z,4.30
2023-10-20T17:59:34.449Z,4.35
2023-10-20T18:02:38.439Z,3.67
2023-10-20T18:05:41.415Z,4.88
2023-10-20T18:08:45.924Z,4.20
2023-10-20T18:11:50.727Z,4.47
2023-10-20T18:14:53.910Z,4.20
2023-10-20T18:17:58.208Z,3.55
2023-10-20T18:21:02.721Z,4.10
2023-10-20T18:24:10.997Z,3.60
2023-10-20T18:27:14.049Z,5.70
2023-10-20T18:30:16.639Z,4.47
2023-10-20T18:33:22.028Z,4.40
2023-10-20T18:36:25.494Z,4.00
2023-10-20T18:39:29.888Z,4.80
2023-10-20T18:42:32.927Z,3.83
2023-10-20T18:45:36.809Z,4.13
2023-10-20T18:48:42.023Z,3.30
2023-10-20T18:51:45.407Z,3.78
2023-10-20T18:54:48.961Z,3.75
2023-10-20T18:57:51.989Z,3.83
2023-10-20T19:00:58.788Z,3.65
2023-10-20T19:04:08.749Z,4.15
2023-10-20T19:07:13.522Z,5.80
2023-10-20T19:10:18.895Z,4.30
2023-10-20T19:13:22.694Z,4.35
2023-10-20T19:16:26.664Z,4.72
2023-10-20T19:19:32.768Z,5.13
2023-10-20T19:22:36.461Z,5.65
2023-10-20T19:25:41.960Z,4.00
2023-10-20T19:28:45.152Z,4.10
2023-10-20T19:31:47.938Z,4.60
2023-10-20T19:34:52.196Z,4.25
2023-10-20T19:37:54.366Z,3.88
2023-10-20T19:40:58.116Z,4.25
2023-10-20T19:44:00.352Z,4.00
2023-10-20T19:47:04.013Z,4.43
2023-10-20T19:50:09.572Z,4.38
2023-10-20T19:53:13.203Z,4.13
2023-10-20T19:56:15.475Z,4.15
2023-10-20T19:59:19.603Z,4.53
2023-10-20T20:02:21.889Z,5.00
2023-10-20T20:05:29.199Z,4.82
2023-10-20T20:08:34.655Z,3.88
2023-10-20T20:11:37.887Z,4.63
2023-10-20T20:14:40.837Z,4.95
2023-10-20T20:17:43.321Z,4.43
2023-10-20T20:20:47.390Z,4.75
2023-10-20T20:23:50.668Z,5.63
2023-10-20T20:26:54.631Z,5.15
2023-10-20T20:29:57.086Z,5.28
2023-10-20T20:32:59.826Z,4.13
2023-10-20T20:36:03.877Z,4.45
2023-10-20T20:39:06.798Z,6.57
2023-10-20T20:42:08.730Z,5.13
2023-10-20T20:45:11.843Z,4.20
2023-10-20T20:48:13.781Z,5.80
2023-10-20T20:51:18.063Z,4.15
2023-10-20T20:54:19.911Z,4.63
2023-10-20T20:57:21.790Z,4.90
2023-10-20T21:00:24.594Z,5.32
2023-10-20T21:03:26.603Z,4.00
2023-10-20T21:06:29.889Z,5.55
2023-10-20T21:09:32.849Z,4.30
2023-10-20T21:12:34.741Z,3.95
2023-10-20T21:15:37.968Z,5.75
2023-10-20T21:18:40.984Z,4.68
2023-10-20T21:21:44.312Z,5.40
2023-10-20T21:24:46.219Z,4.95
2023-10-20T21:27:48.440Z,4.07
2023-10-20T21:30:50.338Z,4.03
2023-10-20T21:33:52.429Z,4.68
2023-10-20T21:36:56.515Z,4.00
2023-10-20T21:39:58.453Z,4.93
2023-10-20T21:43:00.441Z,4.22
2023-10-20T21:46:02.456Z,4.50
2023-10-20T21:49:04.597Z,4.28
2023-10-20T21:52:07.856Z,5.47
2023-10-20T21:55:10.577Z,4.25
2023-10-20T21:58:12.435Z,4.70
2023-10-20T22:01:14.792Z,3.97
2023-10-20T22:04:16.789Z,4.63
2023-10-20T22:07:20.742Z,4.32
2023-10-20T22:10:22.723Z,4.68
2023-10-20T22:13:24.710Z,5.05
2023-10-20T22:16:26.569Z,3.70
2023-10-20T22:19:28.771Z,4.22
2023-10-20T22:22:32.651Z,4.68
2023-10-20T22:25:35.433Z,4.20
2023-10-20T22:28:37.332Z,4.78
2023-10-20T22:31:39.400Z,4.75
2023-10-20T22:34:41.286Z,4.30
2023-10-20T22:37:44.661Z,3.90
2023-10-20T22:40:46.759Z,4.55
2023-10-20T22:43:48.587Z,5.47
2023-10-20T22:46:51.747Z,4.28
2023-10-20T22:49:53.739Z,4.07
2023-10-20T22:52:57.677Z,5.80
2023-10-20T22:55:59.502Z,4.75
2023-10-20T22:59:01.382Z,4.70
2023-10-20T23:02:03.631Z,5.00
2023-10-20T23:05:07.831Z,5.63
2023-10-20T23:08:11.604Z,4.68
2023-10-20T23:11:14.101Z,4.63
2023-10-20T23:14:16.392Z,4.43
2023-10-20T23:17:19.289Z,5.43
2023-10-20T23:20:21.170Z,4.57
2023-10-20T23:23:24.706Z,5.38
2023-10-20T23:26:26.631Z,5.00
2023-10-20T23:29:28.754Z,4.35
2023-10-20T23:32:31.348Z,5.65
2023-10-20T23:35:33.341Z,4.30
2023-10-20T23:38:37.651Z,5.45
2023-10-20T23:41:39.675Z,4.38
2023-10-20T23:44:41.594Z,4.68
2023-10-20T23:47:44.244Z,5.25
2023-10-20T23:50:47.192Z,5.68
2023-10-20T23:53:50.714Z,5.35
2023-10-20T23:56:52.576Z,5.38
2023-10-20T23:59:54.525Z,7.50
